Time;durP1;ratioP1;P1;durP2;ratioP2;P2;SDS_P1;SDS_P2;PMS_P1;PMS_P2;Temp;Humidity;BMP_temperature;BMP_pressure;BME280_temperature;BME280_humidity;BME280_pressure;Samples;Min_cycle;Max_cycle;Signal;HPM_P1;HPM_P2
2022/05/29 00:01:16;;;;;;;11.40;2.95;;;;;;;;;;5015844;28;93070;-71
2022/05/29 00:03:43;;;;;;;11.15;3.30;;;;;;;;;;5016045;28;92818;-70
2022/05/29 00:06:11;;;;;;;12.82;2.75;;;;;;;;;;5014125;28;96562;-71
2022/05/29 00:08:38;;;;;;;10.98;3.03;;;;;;;;;;5015048;28;92524;-71
2022/05/29 00:11:05;;;;;;;10.85;2.55;;;;;;;;;;5018389;28;92971;-71
2022/05/29 00:13:32;;;;;;;6.18;2.65;;;;;;;;;;5015801;28;92415;-71
2022/05/29 00:15:58;;;;;;;8.20;3.00;;;;;;;;;;5015418;28;94115;-70
2022/05/29 00:18:25;;;;;;;9.77;2.67;;;;;;;;;;5015219;28;93564;-71
2022/05/29 00:20:53;;;;;;;11.05;2.95;;;;;;;;;;5015772;28;92414;-71
2022/05/29 00:23:20;;;;;;;6.30;3.22;;;;;;;;;;5011298;28;93904;-71
2022/05/29 00:25:48;;;;;;;6.13;2.58;;;;;;;;;;5014647;28;93608;-71
2022/05/29 00:28:15;;;;;;;10.07;2.28;;;;;;;;;;5015682;28;92499;-71
2022/05/29 00:30:41;;;;;;;8.57;3.08;;;;;;;;;;5012747;28;94880;-70
2022/05/29 00:33:08;;;;;;;11.00;2.80;;;;;;;;;;5019193;28;94129;-71
2022/05/29 00:35:37;;;;;;;7.22;2.97;;;;;;;;;;5015340;28;93239;-71
2022/05/29 00:38:03;;;;;;;15.05;3.33;;;;;;;;;;5014564;28;93193;-71
2022/05/29 00:40:33;;;;;;;8.75;2.63;;;;;;;;;;5014865;28;92454;-71
2022/05/29 00:42:59;;;;;;;11.50;2.72;;;;;;;;;;5015275;28;93042;-71
2022/05/29 00:45:27;;;;;;;8.40;2.92;;;;;;;;;;5014532;28;94259;-71
2022/05/29 00:47:54;;;;;;;15.40;3.40;;;;;;;;;;5015931;28;91898;-71
2022/05/29 00:50:20;;;;;;;7.97;2.70;;;;;;;;;;5016055;28;92456;-71
2022/05/29 00:52:47;;;;;;;10.18;3.28;;;;;;;;;;5013936;28;94143;-71
2022/05/29 00:55:23;;;;;;;14.38;2.95;;;;;;;;;;5016798;28;94836;-71
2022/05/29 00:57:54;;;;;;;12.40;3.35;;;;;;;;;;5013668;28;93387;-71
2022/05/29 01:00:24;;;;;;;9.13;2.78;;;;;;;;;;5015342;28;92415;-71
2022/05/29 01:02:51;;;;;;;14.10;2.90;;;;;;;;;;5015562;28;94418;-72
2022/05/29 01:05:18;;;;;;;12.93;2.75;;;;;;;;;;5014320;28;93394;-70
2022/05/29 01:07:47;;;;;;;11.93;3.00;;;;;;;;;;5015316;28;92506;-71
2022/05/29 01:10:13;;;;;;;20.52;3.42;;;;;;;;;;5014481;28;92885;-71
2022/05/29 01:12:52;;;;;;;10.38;3.00;;;;;;;;;;5013892;28;92576;-71
2022/05/29 01:15:23;;;;;;;10.85;2.50;;;;;;;;;;5014626;28;92492;-71
2022/05/29 01:17:49;;;;;;;9.75;3.20;;;;;;;;;;5017832;28;93870;-71
2022/05/29 01:20:21;;;;;;;9.68;3.25;;;;;;;;;;5012349;28;94925;-71
2022/05/29 01:22:51;;;;;;;12.82;2.90;;;;;;;;;;5014459;28;96402;-71
2022/05/29 01:25:29;;;;;;;5.82;2.58;;;;;;;;;;5031821;28;94195;-71
2022/05/29 01:28:11;;;;;;;11.00;3.35;;;;;;;;;;5020033;28;93323;-71
2022/05/29 01:31:02;;;;;;;11.30;3.70;;;;;;;;;;5013643;28;93005;-71
2022/05/29 01:33:34;;;;;;;7.80;3.15;;;;;;;;;;5012897;28;94208;-71
2022/05/29 01:36:03;;;;;;;16.77;4.97;;;;;;;;;;5014362;28;92543;-71
2022/05/29 01:38:31;;;;;;;14.88;3.58;;;;;;;;;;5016960;28;93872;-71
2022/05/29 01:41:00;;;;;;;9.88;3.40;;;;;;;;;;5013928;28;92898;-71
2022/05/29 01:43:30;;;;;;;11.48;3.08;;;;;;;;;;5013624;28;93911;-70
2022/05/29 01:45:59;;;;;;;10.82;3.15;;;;;;;;;;5012375;28;96777;-71
2022/05/29 01:48:34;;;;;;;9.57;3.10;;;;;;;;;;5012815;28;92572;-70
2022/05/29 01:51:06;;;;;;;10.60;2.95;;;;;;;;;;5013986;28;93926;-70
2022/05/29 01:53:35;;;;;;;10.63;3.80;;;;;;;;;;5013712;28;94177;-70
2022/05/29 01:56:04;;;;;;;10.55;3.72;;;;;;;;;;5012928;28;92972;-70
2022/05/29 01:58:34;;;;;;;10.98;3.80;;;;;;;;;;5014036;28;93322;-70
2022/05/29 02:01:01;;;;;;;8.88;4.03;;;;;;;;;;5015984;28;93425;-71
2022/05/29 02:03:31;;;;;;;19.65;3.90;;;;;;;;;;5014185;28;92961;-70
2022/05/29 02:06:05;;;;;;;16.40;4.38;;;;;;;;;;5006288;28;92570;-70
2022/05/29 02:08:37;;;;;;;11.80;3.53;;;;;;;;;;5012512;28;92481;-70
2022/05/29 02:11:09;;;;;;;10.18;3.72;;;;;;;;;;5004218;28;95159;-70
2022/05/29 02:13:45;;;;;;;7.93;3.08;;;;;;;;;;5013335;28;93283;-70
2022/05/29 02:16:22;;;;;;;12.25;3.13;;;;;;;;;;5013427;28;92495;-71
2022/05/29 02:19:06;;;;;;;11.35;2.97;;;;;;;;;;5012941;28;93870;-70
2022/05/29 02:21:43;;;;;;;9.07;2.72;;;;;;;;;;5013211;28;94167;-71
2022/05/29 02:24:12;;;;;;;10.85;3.20;;;;;;;;;;5000456;28;93729;-70
2022/05/29 02:26:42;;;;;;;6.93;2.33;;;;;;;;;;5011754;28;94204;-70
2022/05/29 02:29:09;;;;;;;11.88;2.53;;;;;;;;;;5005727;28;91846;-70
2022/05/29 02:31:48;;;;;;;8.73;3.08;;;;;;;;;;5013538;28;93274;-70
2022/05/29 02:34:29;;;;;;;6.88;2.20;;;;;;;;;;5013261;28;92398;-70
2022/05/29 02:37:04;;;;;;;4.15;2.20;;;;;;;;;;5010852;28;94864;-70
2022/05/29 02:39:49;;;;;;;6.93;1.70;;;;;;;;;;5012490;28;95809;-70
2022/05/29 02:42:21;;;;;;;3.80;2.28;;;;;;;;;;5006413;28;94152;-71
2022/05/29 02:44:47;;;;;;;8.82;2.13;;;;;;;;;;5012378;28;92496;-71
2022/05/29 02:47:31;;;;;;;3.67;1.80;;;;;;;;;;5016106;28;94101;-71
2022/05/29 02:50:11;;;;;;;12.57;1.95;;;;;;;;;;5017197;28;92516;-71
2022/05/29 02:52:37;;;;;;;6.40;2.00;;;;;;;;;;5012763;28;94017;-71
2022/05/29 02:55:04;;;;;;;4.75;1.80;;;;;;;;;;5013349;28;92530;-71
2022/05/29 02:57:30;;;;;;;6.03;2.08;;;;;;;;;;5011633;28;92491;-71
2022/05/29 03:00:02;;;;;;;9.65;2.03;;;;;;;;;;5013036;28;93018;-71
2022/05/29 03:02:28;;;;;;;6.10;2.05;;;;;;;;;;5010777;28;96825;-71
2022/05/29 03:05:03;;;;;;;4.63;2.30;;;;;;;;;;5011942;28;92627;-71
2022/05/29 03:07:48;;;;;;;4.38;2.00;;;;;;;;;;5013153;28;94220;-71
2022/05/29 03:10:16;;;;;;;2.33;1.63;;;;;;;;;;5015378;28;92508;-71
2022/05/29 03:12:48;;;;;;;5.55;2.05;;;;;;;;;;5011452;28;93075;-71
2022/05/29 03:15:18;;;;;;;4.88;2.00;;;;;;;;;;5012493;28;94342;-71
2022/05/29 03:18:03;;;;;;;7.15;2.15;;;;;;;;;;5012419;28;92506;-71
2022/05/29 03:20:32;;;;;;;3.35;1.80;;;;;;;;;;5005615;28;93953;-72
2022/05/29 03:23:03;;;;;;;3.15;1.65;;;;;;;;;;5016168;28;93593;-71
2022/05/29 03:25:42;;;;;;;3.45;1.98;;;;;;;;;;5015225;28;92809;-71
2022/05/29 03:28:15;;;;;;;5.30;1.95;;;;;;;;;;5014351;28;94995;-71
2022/05/29 03:30:45;;;;;;;3.80;1.85;;;;;;;;;;5015780;28;94559;-71
2022/05/29 03:33:13;;;;;;;5.03;1.90;;;;;;;;;;5018275;28;93949;-71
2022/05/29 03:35:51;;;;;;;4.28;1.95;;;;;;;;;;5015435;28;94130;-71
2022/05/29 03:38:18;;;;;;;3.67;1.83;;;;;;;;;;5015243;28;92651;-71
2022/05/29 03:40:47;;;;;;;6.53;1.98;;;;;;;;;;5015670;28;93994;-71
2022/05/29 03:43:13;;;;;;;4.47;2.20;;;;;;;;;;5015572;28;93374;-71
2022/05/29 03:45:40;;;;;;;6.20;2.10;;;;;;;;;;5016190;28;91700;-71
2022/05/29 03:48:06;;;;;;;3.90;1.85;;;;;;;;;;5014877;28;92654;-71
2022/05/29 03:50:35;;;;;;;6.45;2.20;;;;;;;;;;5015453;28;93455;-71
2022/05/29 03:53:03;;;;;;;4.10;1.95;;;;;;;;;;5017471;28;96208;-71
2022/05/29 03:55:29;;;;;;;5.35;2.47;;;;;;;;;;5014509;28;93564;-71
2022/05/29 03:57:56;;;;;;;4.10;1.85;;;;;;;;;;5016875;28;92877;-71
2022/05/29 04:00:23;;;;;;;5.53;2.13;;;;;;;;;;5014536;28;94157;-71
2022/05/29 04:02:50;;;;;;;4.90;2.08;;;;;;;;;;5015578;28;94197;-71
2022/05/29 04:05:21;;;;;;;2.67;1.98;;;;;;;;;;5015491;28;92483;-71
2022/05/29 04:13:19;;;;;;;2.42;2.13;;;;;;;;;;5015688;28;93026;-71
2022/05/29 04:15:46;;;;;;;4.25;2.08;;;;;;;;;;5023714;27;92883;-71
2022/05/29 04:18:13;;;;;;;8.30;2.20;;;;;;;;;;5013687;28;95235;-71
2022/05/29 04:20:40;;;;;;;6.97;2.10;;;;;;;;;;5015105;28;96313;-71
2022/05/29 04:23:06;;;;;;;4.47;2.03;;;;;;;;;;5014492;28;93125;-71
2022/05/29 04:25:33;;;;;;;5.00;2.45;;;;;;;;;;4999448;28;93018;-71
2022/05/29 04:28:01;;;;;;;4.75;2.28;;;;;;;;;;5009329;28;93183;-70
2022/05/29 04:30:27;;;;;;;8.05;2.83;;;;;;;;;;5014344;28;93588;-70
2022/05/29 04:33:00;;;;;;;7.28;2.70;;;;;;;;;;5014308;28;92468;-70
2022/05/29 04:35:27;;;;;;;11.23;2.90;;;;;;;;;;5015401;28;92999;-70
2022/05/29 04:37:54;;;;;;;10.57;2.80;;;;;;;;;;5017404;28;95060;-70
2022/05/29 04:40:20;;;;;;;13.45;3.25;;;;;;;;;;5014808;28;92580;-72
2022/05/29 04:42:47;;;;;;;16.13;4.07;;;;;;;;;;5011850;28;96820;-75
2022/05/29 04:45:13;;;;;;;8.95;2.60;;;;;;;;;;5015158;28;92638;-72
2022/05/29 04:47:39;;;;;;;8.73;2.90;;;;;;;;;;5014754;28;93116;-72
2022/05/29 04:50:07;;;;;;;8.77;3.28;;;;;;;;;;5014063;28;93866;-72
2022/05/29 04:52:34;;;;;;;11.40;3.75;;;;;;;;;;5014462;28;92572;-71
2022/05/29 04:55:00;;;;;;;16.65;3.72;;;;;;;;;;5014742;28;93926;-71
2022/05/29 04:57:26;;;;;;;10.57;3.50;;;;;;;;;;5013655;28;93694;-71
2022/05/29 04:59:53;;;;;;;10.68;3.28;;;;;;;;;;5018210;28;91703;-71
2022/05/29 05:02:19;;;;;;;11.82;3.65;;;;;;;;;;5014583;28;94163;-71
2022/05/29 05:04:45;;;;;;;13.20;3.08;;;;;;;;;;5014300;28;92783;-71
2022/05/29 05:07:12;;;;;;;8.65;3.15;;;;;;;;;;5013281;28;94967;-71
2022/05/29 05:09:38;;;;;;;9.35;2.83;;;;;;;;;;5013727;28;93825;-71
2022/05/29 05:12:04;;;;;;;8.70;3.58;;;;;;;;;;5013898;28;92572;-71
2022/05/29 05:14:33;;;;;;;18.15;4.13;;;;;;;;;;5014134;28;94338;-71
2022/05/29 05:16:59;;;;;;;9.45;3.47;;;;;;;;;;5014339;28;94338;-72
2022/05/29 05:19:26;;;;;;;4.97;2.22;;;;;;;;;;5013759;28;92467;-72
2022/05/29 05:21:52;;;;;;;7.00;2.65;;;;;;;;;;5017828;28;94133;-72
2022/05/29 05:24:19;;;;;;;6.45;2.22;;;;;;;;;;5014737;28;91740;-72
2022/05/29 05:26:45;;;;;;;8.63;2.55;;;;;;;;;;5013232;28;94049;-71
2022/05/29 05:29:12;;;;;;;14.65;3.38;;;;;;;;;;5014062;28;93502;-71
2022/05/29 05:31:38;;;;;;;7.88;3.13;;;;;;;;;;5012220;28;94967;-72
2022/05/29 05:34:05;;;;;;;8.98;2.80;;;;;;;;;;5013637;28;96036;-71
2022/05/29 05:36:31;;;;;;;9.30;2.30;;;;;;;;;;5013724;28;94231;-72
2022/05/29 05:38:57;;;;;;;6.15;2.92;;;;;;;;;;5015052;28;93320;-71
2022/05/29 05:41:24;;;;;;;3.47;1.92;;;;;;;;;;5013646;28;93999;-71
2022/05/29 05:43:50;;;;;;;7.75;2.40;;;;;;;;;;5015416;28;93686;-71
2022/05/29 05:46:17;;;;;;;3.90;2.28;;;;;;;;;;5000490;28;93590;-72
2022/05/29 05:48:44;;;;;;;8.20;2.55;;;;;;;;;;4997962;28;92623;-72
2022/05/29 05:51:11;;;;;;;7.30;2.13;;;;;;;;;;5007401;28;92652;-72
2022/05/29 05:53:38;;;;;;;2.95;1.92;;;;;;;;;;5006963;28;94486;-72
2022/05/29 05:56:09;;;;;;;3.03;1.77;;;;;;;;;;5009870;28;96796;-72
2022/05/29 05:58:36;;;;;;;7.93;2.22;;;;;;;;;;5006881;28;94020;-72
2022/05/29 06:01:06;;;;;;;5.63;2.00;;;;;;;;;;5003370;28;93207;-72
2022/05/29 06:03:33;;;;;;;4.18;1.88;;;;;;;;;;5002617;28;93615;-72
2022/05/29 06:05:59;;;;;;;8.38;2.35;;;;;;;;;;5006104;28;93161;-72
2022/05/29 06:08:26;;;;;;;6.80;2.17;;;;;;;;;;5008043;28;93428;-72
2022/05/29 06:10:52;;;;;;;5.25;2.42;;;;;;;;;;5013603;28;93081;-72
2022/05/29 06:13:18;;;;;;;7.47;2.20;;;;;;;;;;5014496;28;94037;-72
2022/05/29 06:15:46;;;;;;;5.85;2.13;;;;;;;;;;5012525;28;94179;-72
2022/05/29 06:18:13;;;;;;;7.18;2.65;;;;;;;;;;5013559;28;92497;-71
2022/05/29 06:20:39;;;;;;;10.85;2.83;;;;;;;;;;5010060;28;95657;-71
2022/05/29 06:23:05;;;;;;;10.55;2.65;;;;;;;;;;5010453;28;94216;-72
2022/05/29 06:25:32;;;;;;;11.73;3.30;;;;;;;;;;5007189;28;92889;-71
2022/05/29 06:27:58;;;;;;;3.08;2.30;;;;;;;;;;5008962;28;93440;-71
2022/05/29 06:30:25;;;;;;;9.85;3.85;;;;;;;;;;5012647;28;93410;-71
2022/05/29 06:32:52;;;;;;;7.18;2.90;;;;;;;;;;5013336;28;93934;-71
2022/05/29 06:35:18;;;;;;;11.52;3.47;;;;;;;;;;5012623;28;93987;-71
2022/05/29 06:37:45;;;;;;;15.38;3.40;;;;;;;;;;5013679;28;92120;-71
2022/05/29 06:40:12;;;;;;;13.20;3.47;;;;;;;;;;5011838;28;92569;-71
2022/05/29 06:42:38;;;;;;;13.60;3.53;;;;;;;;;;5002230;28;94279;-71
2022/05/29 06:45:05;;;;;;;11.13;3.20;;;;;;;;;;5009123;28;94934;-71
2022/05/29 06:47:33;;;;;;;7.07;2.83;;;;;;;;;;5015900;28;96441;-72
2022/05/29 06:49:59;;;;;;;16.63;3.47;;;;;;;;;;5011253;28;92454;-71
2022/05/29 06:52:35;;;;;;;15.32;3.28;;;;;;;;;;4997210;28;93858;-71
2022/05/29 06:55:02;;;;;;;19.25;3.72;;;;;;;;;;5006784;28;94416;-71
2022/05/29 06:57:39;;;;;;;16.42;3.55;;;;;;;;;;5002090;28;92914;-71
2022/05/29 07:08:30;;;;;;;4.75;2.05;;;;;;;;;;5009786;28;95455;-71
2022/05/29 07:10:59;;;;;;;12.30;2.35;;;;;;;;;;5008952;28;96648;-71
2022/05/29 07:13:26;;;;;;;6.30;2.08;;;;;;;;;;4997207;28;96180;-72
2022/05/29 07:15:52;;;;;;;5.68;1.90;;;;;;;;;;5004694;28;94310;-72
2022/05/29 07:18:19;;;;;;;8.55;2.25;;;;;;;;;;5009664;28;92941;-72
2022/05/29 07:20:45;;;;;;;7.22;2.90;;;;;;;;;;5012588;28;93826;-71
2022/05/29 07:23:14;;;;;;;8.25;1.73;;;;;;;;;;5012391;28;94289;-72
2022/05/29 07:25:41;;;;;;;10.88;2.42;;;;;;;;;;5011829;28;92616;-71
2022/05/29 07:28:08;;;;;;;10.13;1.92;;;;;;;;;;5006093;28;93850;-72
2022/05/29 07:30:35;;;;;;;5.93;1.55;;;;;;;;;;5011997;28;94427;-72
2022/05/29 07:33:02;;;;;;;4.13;1.33;;;;;;;;;;5015170;28;92648;-71
2022/05/29 07:35:29;;;;;;;11.52;3.22;;;;;;;;;;5010079;28;96493;-72
2022/05/29 07:37:56;;;;;;;5.55;1.95;;;;;;;;;;5004897;28;92531;-72
2022/05/29 07:40:23;;;;;;;2.95;1.02;;;;;;;;;;5011198;28;93786;-72
2022/05/29 07:45:34;;;;;;;6.90;1.60;;;;;;;;;;5011292;28;92446;-72
2022/05/29 07:48:00;;;;;;;3.95;1.20;;;;;;;;;;5004578;28;93120;-72
2022/05/29 07:50:27;;;;;;;5.38;1.80;;;;;;;;;;5012174;28;93766;-72
2022/05/29 07:52:54;;;;;;;3.72;1.40;;;;;;;;;;5012164;28;91775;-72
2022/05/29 07:55:21;;;;;;;5.38;1.20;;;;;;;;;;5015319;28;93095;-72
2022/05/29 07:57:47;;;;;;;4.60;1.38;;;;;;;;;;5004544;28;92487;-72
2022/05/29 08:00:16;;;;;;;4.10;1.40;;;;;;;;;;5010092;28;95282;-72
2022/05/29 08:02:43;;;;;;;5.35;1.63;;;;;;;;;;5011513;28;93996;-72
2022/05/29 08:05:10;;;;;;;3.53;1.42;;;;;;;;;;5012525;28;92451;-72
2022/05/29 08:07:37;;;;;;;9.65;2.72;;;;;;;;;;5004474;28;93941;-72
2022/05/29 08:10:04;;;;;;;7.18;1.83;;;;;;;;;;5015285;28;94256;-72
2022/05/29 08:12:30;;;;;;;8.05;2.40;;;;;;;;;;5015310;28;92462;-72
2022/05/29 08:14:56;;;;;;;6.68;1.80;;;;;;;;;;5009860;28;94332;-72
2022/05/29 08:17:23;;;;;;;5.18;1.77;;;;;;;;;;5010921;28;91761;-72
2022/05/29 08:19:49;;;;;;;5.40;1.55;;;;;;;;;;5015397;28;92831;-72
2022/05/29 08:22:16;;;;;;;5.55;1.50;;;;;;;;;;5014910;28;94426;-72
2022/05/29 08:32:57;;;;;;;7.43;1.70;;;;;;;;;;5007240;28;92501;-71
2022/05/29 08:35:24;;;;;;;3.40;1.17;;;;;;;;;;5014351;28;92793;-71
2022/05/29 08:37:50;;;;;;;2.88;1.10;;;;;;;;;;5017994;28;94257;-71
2022/05/29 08:40:17;;;;;;;3.92;1.30;;;;;;;;;;5015164;28;93828;-72
2022/05/29 08:42:43;;;;;;;5.05;1.48;;;;;;;;;;5014699;28;92539;-71
2022/05/29 08:45:12;;;;;;;4.03;1.27;;;;;;;;;;5015313;28;93763;-71
2022/05/29 08:47:39;;;;;;;4.55;1.73;;;;;;;;;;5006699;28;93534;-71
2022/05/29 08:50:06;;;;;;;2.17;1.50;;;;;;;;;;5012354;28;95879;-71
2022/05/29 08:52:54;;;;;;;5.28;1.52;;;;;;;;;;5014652;28;92915;-71
2022/05/29 08:55:26;;;;;;;5.20;1.23;;;;;;;;;;5015063;28;93994;-71
2022/05/29 08:58:02;;;;;;;3.83;1.40;;;;;;;;;;5013850;28;94616;-71
2022/05/29 09:00:32;;;;;;;2.35;1.20;;;;;;;;;;5017867;28;93795;-71
2022/05/29 09:03:25;;;;;;;1.67;0.90;;;;;;;;;;5008481;28;93829;-71
2022/05/29 09:05:57;;;;;;;5.63;1.55;;;;;;;;;;4998105;28;92539;-71
2022/05/29 09:08:42;;;;;;;4.82;1.48;;;;;;;;;;5009380;28;93924;-71
2022/05/29 09:11:13;;;;;;;3.05;1.52;;;;;;;;;;5013878;28;94232;-71
2022/05/29 09:13:45;;;;;;;5.53;1.90;;;;;;;;;;5008207;28;92529;-71
2022/05/29 09:16:14;;;;;;;3.20;1.35;;;;;;;;;;4994201;28;95058;-71
2022/05/29 09:18:42;;;;;;;2.58;1.10;;;;;;;;;;5009676;28;94175;-70
2022/05/29 09:21:32;;;;;;;3.35;0.95;;;;;;;;;;5012786;28;92829;-70
2022/05/29 09:24:06;;;;;;;2.40;0.77;;;;;;;;;;5016445;28;93946;-71
2022/05/29 09:26:36;;;;;;;7.97;0.93;;;;;;;;;;5014400;28;92489;-70
2022/05/29 09:29:03;;;;;;;5.82;1.17;;;;;;;;;;5014519;28;93197;-70
2022/05/29 09:31:30;;;;;;;4.30;1.13;;;;;;;;;;5013190;28;93416;-70
2022/05/29 09:33:56;;;;;;;1.85;0.90;;;;;;;;;;5014712;28;91762;-70
2022/05/29 09:36:23;;;;;;;3.28;1.33;;;;;;;;;;5013970;28;93120;-70
2022/05/29 09:38:51;;;;;;;3.40;1.35;;;;;;;;;;4998029;28;93531;-71
2022/05/29 09:41:24;;;;;;;5.57;2.30;;;;;;;;;;5001009;28;95013;-71
2022/05/29 09:44:06;;;;;;;7.43;2.08;;;;;;;;;;5010939;28;96611;-71
2022/05/29 09:46:34;;;;;;;10.20;2.15;;;;;;;;;;5010339;28;94099;-71
2022/05/29 09:52:07;;;;;;;5.82;1.27;;;;;;;;;;5013355;28;93987;-71
2022/05/29 09:54:38;;;;;;;5.88;2.13;;;;;;;;;;4999666;28;92480;-72
2022/05/29 09:57:29;;;;;;;5.10;1.63;;;;;;;;;;5013664;28;93879;-71
2022/05/29 10:00:00;;;;;;;6.13;2.08;;;;;;;;;;4985555;28;93610;-72
2022/05/29 10:02:28;;;;;;;4.78;1.38;;;;;;;;;;5006081;28;92617;-72
2022/05/29 10:04:58;;;;;;;5.32;1.70;;;;;;;;;;5013941;28;93752;-73
2022/05/29 10:07:42;;;;;;;4.85;1.80;;;;;;;;;;4998752;28;96714;-73
2022/05/29 10:10:11;;;;;;;4.35;1.63;;;;;;;;;;5006556;28;92596;-72
2022/05/29 10:12:37;;;;;;;4.95;1.90;;;;;;;;;;5013268;28;94285;-71
2022/05/29 10:15:04;;;;;;;9.35;1.77;;;;;;;;;;5004583;28;92583;-71
2022/05/29 10:17:33;;;;;;;6.43;1.98;;;;;;;;;;5013474;28;93102;-72
2022/05/29 10:20:26;;;;;;;7.95;1.85;;;;;;;;;;5005260;28;94063;-72
2022/05/29 10:22:54;;;;;;;6.07;2.30;;;;;;;;;;5001430;28;92499;-71
2022/05/29 10:25:21;;;;;;;8.90;2.20;;;;;;;;;;5014048;28;93821;-72
2022/05/29 10:27:49;;;;;;;7.90;2.17;;;;;;;;;;4998163;28;93963;-72
2022/05/29 10:30:30;;;;;;;7.07;2.58;;;;;;;;;;5014143;28;92937;-72
2022/05/29 10:33:05;;;;;;;7.95;2.45;;;;;;;;;;5004116;28;96348;-73
2022/05/29 10:35:33;;;;;;;5.35;2.28;;;;;;;;;;5004738;28;93385;-72
2022/05/29 10:38:13;;;;;;;4.00;1.60;;;;;;;;;;5013274;28;93169;-72
2022/05/29 10:40:41;;;;;;;12.27;2.70;;;;;;;;;;5004734;28;95332;-72
2022/05/29 10:43:08;;;;;;;7.78;1.90;;;;;;;;;;5009060;28;92477;-72
2022/05/29 10:45:42;;;;;;;3.95;1.63;;;;;;;;;;5013195;28;92397;-72
2022/05/29 10:48:15;;;;;;;7.45;1.92;;;;;;;;;;5013395;28;93563;-71
2022/05/29 10:50:41;;;;;;;;;;;;;;;;;;5013988;28;93111;-71
2022/05/29 10:53:19;;;;;;;4.72;1.67;;;;;;;;;;5016495;28;122249;-71
2022/05/29 10:55:51;;;;;;;9.60;1.75;;;;;;;;;;5005330;28;92939;-71
2022/05/29 10:58:20;;;;;;;10.63;2.78;;;;;;;;;;5011386;28;94961;-71
2022/05/29 11:01:01;;;;;;;5.88;1.90;;;;;;;;;;5012722;28;94354;-71
2022/05/29 11:03:31;;;;;;;17.42;2.85;;;;;;;;;;5011780;28;92974;-71
2022/05/29 11:06:00;;;;;;;9.73;2.40;;;;;;;;;;5012909;28;93954;-71
2022/05/29 11:08:40;;;;;;;12.30;2.67;;;;;;;;;;5012485;28;94178;-71
2022/05/29 11:11:12;;;;;;;8.00;1.98;;;;;;;;;;5012242;28;92897;-71
2022/05/29 11:13:45;;;;;;;7.82;2.10;;;;;;;;;;5012557;28;93979;-72
2022/05/29 11:16:30;;;;;;;6.28;1.92;;;;;;;;;;5016329;28;93715;-71
2022/05/29 11:19:07;;;;;;;5.88;1.67;;;;;;;;;;5007241;28;93230;-71
2022/05/29 11:21:39;;;;;;;5.90;1.52;;;;;;;;;;5012046;28;94250;-71
2022/05/29 11:24:25;;;;;;;5.78;1.95;;;;;;;;;;5010598;28;95303;-71
2022/05/29 11:27:07;;;;;;;8.30;1.75;;;;;;;;;;5005650;28;96461;-71
2022/05/29 11:29:34;;;;;;;;;;;;;;;;;;5012704;28;93526;-71
2022/05/29 11:32:23;;;;;;;3.42;1.42;;;;;;;;;;5012474;28;117126;-71
2022/05/29 11:35:08;;;;;;;4.43;1.05;;;;;;;;;;5005310;28;93877;-71
2022/05/29 11:37:44;;;;;;;3.00;1.13;;;;;;;;;;5011288;28;94039;-70
2022/05/29 11:40:11;;;;;;;6.10;1.40;;;;;;;;;;5015729;28;92905;-71
2022/05/29 11:42:54;;;;;;;8.05;1.45;;;;;;;;;;5013652;28;92767;-74
2022/05/29 11:45:24;;;;;;;10.45;1.30;;;;;;;;;;5012514;28;92859;-71
2022/05/29 11:51:08;;;;;;;3.30;1.40;;;;;;;;;;5014041;28;96679;-70
2022/05/29 11:53:36;;;;;;;7.20;1.63;;;;;;;;;;4999240;28;92575;-70
2022/05/29 11:56:06;;;;;;;6.30;1.65;;;;;;;;;;5015666;28;94010;-70
2022/05/29 11:58:34;;;;;;;3.92;1.25;;;;;;;;;;5015314;28;94157;-70
2022/05/29 12:01:11;;;;;;;3.90;1.17;;;;;;;;;;5015476;28;92610;-71
2022/05/29 12:03:38;;;;;;;1.98;1.35;;;;;;;;;;5018294;28;94030;-71
2022/05/29 12:06:09;;;;;;;3.67;1.05;;;;;;;;;;5015004;28;92865;-71
2022/05/29 12:08:49;;;;;;;7.55;1.75;;;;;;;;;;5015775;28;92983;-71
2022/05/29 12:11:18;;;;;;;5.90;1.33;;;;;;;;;;5009873;28;94114;-71
2022/05/29 12:14:03;;;;;;;5.97;1.30;;;;;;;;;;5013303;28;93936;-71
2022/05/29 12:16:31;;;;;;;2.33;0.98;;;;;;;;;;5013708;28;94856;-71
2022/05/29 12:18:59;;;;;;;3.53;1.60;;;;;;;;;;5007399;28;92504;-72
2022/05/29 12:21:29;;;;;;;5.30;1.50;;;;;;;;;;5014710;28;92594;-71
2022/05/29 12:23:56;;;;;;;1.73;1.05;;;;;;;;;;5018324;28;93878;-71
2022/05/29 12:26:28;;;;;;;4.13;1.23;;;;;;;;;;5007320;28;93768;-71
2022/05/29 12:29:03;;;;;;;1.60;1.02;;;;;;;;;;4991333;28;93122;-71
2022/05/29 12:31:30;;;;;;;6.70;1.65;;;;;;;;;;5002692;28;94288;-71
2022/05/29 12:33:56;;;;;;;5.43;1.30;;;;;;;;;;5014677;28;91817;-71
2022/05/29 12:36:29;;;;;;;4.13;0.90;;;;;;;;;;5014678;28;92421;-71
2022/05/29 12:39:03;;;;;;;3.30;1.20;;;;;;;;;;4999867;28;94784;-71
2022/05/29 12:41:41;;;;;;;4.97;1.02;;;;;;;;;;5012277;28;94864;-71
2022/05/29 12:44:09;;;;;;;3.20;1.35;;;;;;;;;;5007463;28;95253;-71
2022/05/29 12:46:49;;;;;;;2.70;1.15;;;;;;;;;;5017606;28;93477;-71
2022/05/29 12:49:42;;;;;;;3.97;1.00;;;;;;;;;;5009885;28;92444;-71
2022/05/29 12:52:20;;;;;;;2.70;1.27;;;;;;;;;;4998910;28;94183;-71
2022/05/29 12:55:04;;;;;;;3.40;1.25;;;;;;;;;;5013926;28;92742;-70
2022/05/29 12:57:32;;;;;;;3.80;1.20;;;;;;;;;;5014951;28;93591;-71
2022/05/29 13:00:06;;;;;;;6.25;1.00;;;;;;;;;;5014830;28;92786;-71
2022/05/29 13:02:53;;;;;;;7.68;1.27;;;;;;;;;;5013771;28;92505;-71
2022/05/29 13:05:41;;;;;;;8.88;1.88;;;;;;;;;;5003656;28;92925;-71
2022/05/29 13:08:07;;;;;;;7.47;1.20;;;;;;;;;;5001935;28;96617;-70
2022/05/29 13:10:39;;;;;;;3.22;1.40;;;;;;;;;;5011744;28;92444;-70
2022/05/29 13:13:25;;;;;;;4.13;1.10;;;;;;;;;;5013908;28;93986;-71
2022/05/29 13:15:52;;;;;;;3.70;1.35;;;;;;;;;;4998912;28;92523;-71
2022/05/29 13:18:24;;;;;;;3.85;1.38;;;;;;;;;;5013811;28;94071;-71
2022/05/29 13:21:28;;;;;;;2.37;1.10;;;;;;;;;;5014307;28;94645;-71
2022/05/29 13:23:55;;;;;;;4.78;0.98;;;;;;;;;;4954765;28;92853;-71
2022/05/29 13:26:24;;;;;;;5.93;1.33;;;;;;;;;;4965496;28;94015;-71
2022/05/29 13:29:00;;;;;;;2.55;1.20;;;;;;;;;;4984381;28;93973;-72
2022/05/29 13:31:31;;;;;;;1.08;0.80;;;;;;;;;;5013507;28;93122;-71
2022/05/29 13:34:18;;;;;;;2.70;1.25;;;;;;;;;;5015331;28;94828;-72
2022/05/29 13:36:49;;;;;;;5.55;1.35;;;;;;;;;;5013527;28;92530;-71
2022/05/29 13:39:21;;;;;;;4.63;1.63;;;;;;;;;;5013184;28;92474;-71
2022/05/29 13:42:02;;;;;;;1.08;1.02;;;;;;;;;;5014130;28;92458;-71
2022/05/29 13:44:38;;;;;;;1.95;1.05;;;;;;;;;;5008984;28;92548;-71
2022/05/29 13:47:26;;;;;;;3.72;1.38;;;;;;;;;;5004644;28;94063;-71
2022/05/29 13:50:01;;;;;;;5.18;1.40;;;;;;;;;;5014006;28;94183;-71
2022/05/29 13:52:33;;;;;;;10.00;1.40;;;;;;;;;;5006159;28;91886;-71
2022/05/29 13:55:04;;;;;;;1.13;0.87;;;;;;;;;;5013915;28;92569;-71
2022/05/29 14:06:39;;;;;;;3.25;0.98;;;;;;;;;;4997396;28;92593;-72
2022/05/29 14:09:08;;;;;;;3.13;1.02;;;;;;;;;;5013681;28;93314;-72
2022/05/29 14:11:55;;;;;;;2.30;1.15;;;;;;;;;;5013166;28;93808;-71
2022/05/29 14:14:30;;;;;;;2.53;1.10;;;;;;;;;;5012719;28;92589;-71
2022/05/29 14:16:59;;;;;;;2.03;1.20;;;;;;;;;;5013613;28;93423;-71
2022/05/29 14:19:31;;;;;;;3.10;1.33;;;;;;;;;;5012790;28;92575;-71
2022/05/29 14:22:03;;;;;;;4.18;1.00;;;;;;;;;;5009959;28;92499;-71
2022/05/29 14:24:36;;;;;;;3.28;1.08;;;;;;;;;;5010119;28;94156;-71
2022/05/29 14:27:02;;;;;;;;;;;;;;;;;;5007822;28;94880;-71
2022/05/29 14:29:34;;;;;;;7.30;1.00;;;;;;;;;;5002264;28;124682;-71
2022/05/29 14:32:18;;;;;;;3.40;1.00;;;;;;;;;;5012704;28;94205;-71
2022/05/29 14:34:51;;;;;;;4.18;1.20;;;;;;;;;;5012254;28;92561;-71
2022/05/29 14:37:24;;;;;;;2.65;1.05;;;;;;;;;;5010251;28;92575;-71
2022/05/29 14:39:57;;;;;;;6.82;1.38;;;;;;;;;;5000092;28;93674;-72
2022/05/29 14:42:29;;;;;;;5.07;1.13;;;;;;;;;;5015482;28;92471;-71
2022/05/29 14:45:05;;;;;;;3.25;1.23;;;;;;;;;;5013614;28;93551;-71
2022/05/29 14:47:34;;;;;;;5.35;1.33;;;;;;;;;;5010207;28;92517;-71
2022/05/29 14:50:00;;;;;;;4.03;1.13;;;;;;;;;;5000038;28;94305;-71
2022/05/29 14:52:33;;;;;;;5.80;1.35;;;;;;;;;;5011100;28;95779;-71
2022/05/29 14:55:06;;;;;;;2.63;1.02;;;;;;;;;;5012468;28;92670;-71
2022/05/29 14:57:33;;;;;;;5.03;1.40;;;;;;;;;;5013127;28;94271;-72
2022/05/29 15:00:02;;;;;;;3.10;1.17;;;;;;;;;;5012897;28;92447;-72
2022/05/29 15:02:31;;;;;;;3.58;1.15;;;;;;;;;;5011915;28;92875;-72
2022/05/29 15:05:06;;;;;;;6.88;1.25;;;;;;;;;;5015723;28;93289;-71
2022/05/29 15:10:31;;;;;;;1.20;1.10;;;;;;;;;;5012709;28;93572;-72
2022/05/29 15:13:06;;;;;;;7.30;1.42;;;;;;;;;;5006460;28;94187;-72
2022/05/29 15:15:39;;;;;;;4.18;1.42;;;;;;;;;;5010906;28;92528;-72
2022/05/29 15:18:20;;;;;;;5.50;1.63;;;;;;;;;;5007537;28;94814;-73
2022/05/29 15:26:48;;;;;;;2.45;1.60;;;;;;;;;;4997660;28;93792;-71
2022/05/29 15:29:25;;;;;;;4.97;1.70;;;;;;;;;;5014454;28;94344;-71
2022/05/29 15:31:52;;;;;;;3.88;1.60;;;;;;;;;;5007800;28;93784;-71
2022/05/29 15:34:25;;;;;;;8.13;1.85;;;;;;;;;;5016416;28;93625;-71
2022/05/29 15:36:51;;;;;;;;;;;;;;;;;;5008016;28;91888;-71
2022/05/29 15:39:44;;;;;;;2.53;1.55;;;;;;;;;;5016096;28;122268;-71
2022/05/29 15:42:26;;;;;;;3.60;1.60;;;;;;;;;;5013914;28;94288;-71
2022/05/29 15:44:54;;;;;;;;;;;;;;;;;;5006160;28;95027;-71
2022/05/29 15:47:46;;;;;;;5.15;1.25;;;;;;;;;;5016012;28;125821;-72
2022/05/29 15:50:19;;;;;;;5.68;1.73;;;;;;;;;;5014648;28;93201;-71
2022/05/29 15:52:48;;;;;;;8.38;1.63;;;;;;;;;;5017859;28;93025;-71